createdAt,value
2019-04-07T00:00:08.948Z,37.13
2019-04-07T00:02:38.474Z,38.38
2019-04-07T00:05:11.901Z,31.82
2019-04-07T00:07:38.004Z,26.62
2019-04-07T00:10:08.729Z,29.48
2019-04-07T00:12:37.501Z,32.55
2019-04-07T00:15:07.066Z,32.38
2019-04-07T00:17:36.209Z,31.45
2019-04-07T00:20:07.228Z,35.35
2019-04-07T00:22:36.084Z,27.50
2019-04-07T00:25:05.262Z,26.23
2019-04-07T00:27:34.155Z,25.60
2019-04-07T00:30:02.802Z,24.43
2019-04-07T00:32:32.814Z,30.37
2019-04-07T00:35:01.505Z,29.37
2019-04-07T00:37:31.077Z,28.92
2019-04-07T00:39:59.998Z,27.75
2019-04-07T00:42:29.179Z,26.85
2019-04-07T00:44:57.868Z,29.23
2019-04-07T00:47:26.685Z,27.10
2019-04-07T00:49:55.591Z,25.55
2019-04-07T00:52:25.471Z,24.92
2019-04-07T00:54:54.591Z,25.25
2019-04-07T00:57:23.285Z,26.30
2019-04-07T00:59:51.980Z,23.20
2019-04-07T01:02:21.231Z,23.92
2019-04-07T01:04:50.604Z,26.17
2019-04-07T01:07:19.393Z,26.30
2019-04-07T01:09:48.107Z,28.25
2019-04-07T01:12:16.801Z,27.58
2019-04-07T01:14:45.459Z,26.73
2019-04-07T01:17:14.876Z,32.65
2019-04-07T01:19:44.217Z,25.10
2019-04-07T01:22:12.847Z,25.50
2019-04-07T01:24:41.777Z,27.77
2019-04-07T01:27:10.507Z,23.90
2019-04-07T01:29:39.942Z,25.37
2019-04-07T01:32:08.855Z,25.30
2019-04-07T01:34:37.546Z,26.85
2019-04-07T01:37:06.285Z,22.77
2019-04-07T01:39:35.066Z,25.90
2019-04-07T01:42:05.820Z,26.30
2019-04-07T01:44:39.769Z,29.10
2019-04-07T01:47:10.053Z,24.60
2019-04-07T01:49:40.330Z,26.30
2019-04-07T01:52:26.256Z,25.32
2019-04-07T01:55:02.730Z,31.02
2019-04-07T01:57:39.797Z,32.55
2019-04-07T02:00:26.559Z,29.37
2019-04-07T02:02:57.156Z,24.10
2019-04-07T02:05:44.298Z,25.32
2019-04-07T02:08:14.760Z,26.27
2019-04-07T02:11:02.502Z,30.90
2019-04-07T02:13:42.868Z,29.07
2019-04-07T02:16:13.151Z,30.72
2019-04-07T02:18:58.875Z,33.30
2019-04-07T02:21:29.586Z,33.63
2019-04-07T02:24:14.773Z,34.57
2019-04-07T02:26:45.585Z,30.35
2019-04-07T02:29:22.136Z,26.23
2019-04-07T02:32:01.562Z,30.62
2019-04-07T02:34:38.074Z,33.00
2019-04-07T02:37:14.541Z,32.53
2019-04-07T02:39:50.759Z,28.47
2019-04-07T02:42:27.199Z,35.68
2019-04-07T02:44:57.526Z,31.50
2019-04-07T02:47:34.062Z,29.40
2019-04-07T02:50:14.077Z,35.28
2019-04-07T02:52:50.463Z,36.88
2019-04-07T02:55:33.541Z,38.00
2019-04-07T02:58:04.513Z,43.15
2019-04-07T03:00:41.391Z,45.25
2019-04-07T03:03:20.862Z,46.18
2019-04-07T03:05:56.833Z,49.93
2019-04-07T03:08:30.220Z,52.23
2019-04-07T03:11:12.445Z,46.45
2019-04-07T03:13:58.991Z,41.98
2019-04-07T03:16:32.118Z,39.80
2019-04-07T03:19:02.465Z,41.75
2019-04-07T03:21:33.076Z,36.20
2019-04-07T03:24:19.571Z,38.33
2019-04-07T03:27:08.155Z,50.25
2019-04-07T03:29:41.732Z,51.68
2019-04-07T03:32:16.459Z,46.58
2019-04-07T03:35:00.176Z,51.70
2019-04-07T03:37:44.792Z,59.27
2019-04-07T03:40:20.128Z,47.75
2019-04-07T03:42:53.111Z,57.78
2019-04-07T03:45:26.565Z,61.18
2019-04-07T03:48:02.737Z,50.95
2019-04-07T03:50:33.357Z,57.93
2019-04-07T03:53:20.233Z,64.87
2019-04-07T03:55:51.306Z,56.63
2019-04-07T03:58:34.363Z,62.53
2019-04-07T04:01:06.659Z,53.40
2019-04-07T04:03:46.081Z,48.02
2019-04-07T04:06:19.416Z,76.45
2019-04-07T04:09:02.203Z,73.25
2019-04-07T04:14:32.018Z,57.05
2019-04-07T04:17:00.818Z,82.45
2019-04-07T04:19:30.188Z,85.67
2019-04-07T04:21:59.003Z,106.17
2019-04-07T04:24:28.411Z,108.78
2019-04-07T04:26:57.316Z,128.80
2019-04-07T04:29:26.528Z,103.40
2019-04-07T04:31:55.690Z,97.27
2019-04-07T04:34:25.121Z,108.87
2019-04-07T04:36:54.509Z,113.80
2019-04-07T04:39:23.288Z,134.60
2019-04-07T04:41:52.092Z,92.20
2019-04-07T04:44:21.869Z,85.87
2019-04-07T04:46:51.037Z,84.67
2019-04-07T04:49:20.003Z,118.70
2019-04-07T04:51:50.127Z,78.95
2019-04-07T04:54:19.359Z,105.25
2019-04-07T04:56:48.286Z,66.37
2019-04-07T04:59:16.961Z,97.08
2019-04-07T05:01:45.649Z,93.25
2019-04-07T05:04:15.111Z,75.30
2019-04-07T05:06:44.567Z,73.30
2019-04-07T05:09:13.391Z,68.25
2019-04-07T05:11:42.755Z,72.53
2019-04-07T05:14:11.669Z,68.83
2019-04-07T05:16:40.355Z,70.47
2019-04-07T05:19:09.744Z,67.15
2019-04-07T05:21:38.545Z,68.78
2019-04-07T05:24:07.234Z,60.78
2019-04-07T05:26:36.485Z,59.08
2019-04-07T05:29:05.930Z,63.38
2019-04-07T05:31:34.778Z,66.72
2019-04-07T05:34:03.480Z,62.62
2019-04-07T05:36:32.501Z,61.55
2019-04-07T05:39:01.236Z,53.73
2019-04-07T05:41:30.463Z,52.05
2019-04-07T05:43:59.863Z,50.08
2019-04-07T05:46:28.526Z,51.70
2019-04-07T05:48:57.571Z,51.63
2019-04-07T05:51:29.934Z,37.03
2019-04-07T05:53:57.083Z,37.50
2019-04-07T05:56:28.088Z,34.58
2019-04-07T05:58:56.069Z,30.52
2019-04-07T06:01:24.871Z,32.83
2019-04-07T06:03:54.465Z,32.70
2019-04-07T06:06:23.193Z,27.70
2019-04-07T06:08:51.906Z,29.82
2019-04-07T06:11:20.584Z,25.35
2019-04-07T06:13:50.378Z,28.60
2019-04-07T06:16:21.017Z,23.52
2019-04-07T06:18:50.139Z,26.87
2019-04-07T06:21:18.906Z,19.17
2019-04-07T06:23:47.637Z,22.65
2019-04-07T06:26:17.282Z,20.88
2019-04-07T06:28:51.283Z,20.62
2019-04-07T06:31:17.313Z,21.62
2019-04-07T06:33:46.807Z,19.95
2019-04-07T06:36:19.438Z,17.67
2019-04-07T06:38:51.236Z,20.43
2019-04-07T06:41:16.432Z,17.82
2019-04-07T06:43:45.188Z,16.00
2019-04-07T06:46:16.176Z,17.05
2019-04-07T06:48:58.513Z,16.48
2019-04-07T06:51:30.910Z,16.30
2019-04-07T06:54:21.625Z,15.58
2019-04-07T06:56:50.017Z,17.45
2019-04-07T06:59:23.364Z,20.20
2019-04-07T07:02:10.357Z,13.20
2019-04-07T07:04:43.586Z,17.75
2019-04-07T07:07:28.134Z,16.00
2019-04-07T07:10:00.659Z,14.85
2019-04-07T07:12:33.542Z,14.55
2019-04-07T07:15:21.162Z,17.67
2019-04-07T07:17:59.309Z,15.63
2019-04-07T07:20:31.672Z,13.88
2019-04-07T07:23:12.198Z,13.00
2019-04-07T07:25:38.505Z,11.33
2019-04-07T07:28:07.584Z,14.20
2019-04-07T07:30:37.577Z,14.78
2019-04-07T07:33:08.846Z,15.53
2019-04-07T07:35:36.543Z,13.40
2019-04-07T07:38:05.934Z,11.73
2019-04-07T07:40:35.112Z,11.40
2019-04-07T07:43:05.484Z,11.10
2019-04-07T07:45:34.473Z,12.93
2019-04-07T07:48:03.192Z,14.20
2019-04-07T07:50:31.928Z,14.65
2019-04-07T07:53:01.378Z,12.18
2019-04-07T07:55:33.729Z,12.33
2019-04-07T07:58:01.048Z,16.20
2019-04-07T08:00:30.014Z,10.72
2019-04-07T08:02:59.191Z,16.93
2019-04-07T08:05:31.770Z,11.35
2019-04-07T08:07:58.436Z,12.18
2019-04-07T08:10:27.644Z,11.90
2019-04-07T08:12:56.442Z,16.75
2019-04-07T08:15:29.745Z,11.20
2019-04-07T08:17:56.288Z,13.72
2019-04-07T08:20:25.064Z,12.15
2019-04-07T08:22:54.003Z,9.90
2019-04-07T08:25:24.763Z,10.53
2019-04-07T08:27:53.170Z,10.68
2019-04-07T08:30:21.859Z,14.13
2019-04-07T08:32:50.549Z,12.70
2019-04-07T08:35:19.775Z,11.28
2019-04-07T08:37:49.193Z,9.43
2019-04-07T08:40:18.790Z,13.03
2019-04-07T08:42:49.073Z,13.40
2019-04-07T08:45:18.923Z,12.82
2019-04-07T08:47:50.024Z,13.43
2019-04-07T08:50:20.810Z,11.30
2019-04-07T08:52:48.957Z,10.40
2019-04-07T08:55:20.075Z,9.40
2019-04-07T08:57:48.047Z,11.20
2019-04-07T09:00:21.442Z,11.05
2019-04-07T09:03:00.223Z,10.50
2019-04-07T09:05:25.595Z,8.28
2019-04-07T09:07:51.785Z,9.53
2019-04-07T09:10:22.296Z,11.22
2019-04-07T09:12:51.051Z,12.30
2019-04-07T09:15:21.444Z,10.82
2019-04-07T09:17:55.507Z,9.73
2019-04-07T09:20:40.303Z,12.30
2019-04-07T09:23:19.040Z,11.10
2019-04-07T09:26:04.442Z,8.33
2019-04-07T09:28:47.484Z,12.18
2019-04-07T09:31:36.415Z,9.00
2019-04-07T09:34:23.102Z,9.35
2019-04-07T09:37:00.227Z,8.25
2019-04-07T09:39:52.809Z,8.25
2019-04-07T09:42:25.690Z,8.73
2019-04-07T09:45:02.078Z,7.75
2019-04-07T09:47:32.605Z,9.13
2019-04-07T09:50:03.581Z,9.35
2019-04-07T09:52:45.123Z,7.78
2019-04-07T09:55:32.070Z,7.50
2019-04-07T09:58:07.966Z,7.53
2019-04-07T10:00:39.899Z,7.10
2019-04-07T10:03:15.164Z,7.95
2019-04-07T10:05:48.488Z,8.33
2019-04-07T10:08:33.572Z,6.83
2019-04-07T10:11:09.717Z,6.83
2019-04-07T10:13:51.985Z,8.33
2019-04-07T10:16:22.294Z,7.25
2019-04-07T10:19:01.959Z,8.00
2019-04-07T10:21:41.761Z,6.00
2019-04-07T10:24:29.034Z,7.97
2019-04-07T10:27:02.368Z,6.62
2019-04-07T10:29:33.083Z,8.40
2019-04-07T10:32:06.729Z,11.73
2019-04-07T10:34:37.478Z,5.25
2019-04-07T10:37:19.752Z,7.62
2019-04-07T10:39:52.730Z,6.97
2019-04-07T10:42:29.319Z,8.00
2019-04-07T10:45:12.028Z,6.65
2019-04-07T10:47:46.022Z,7.33
2019-04-07T10:50:20.005Z,8.03
2019-04-07T10:52:53.533Z,5.12
2019-04-07T10:55:29.279Z,6.12
2019-04-07T10:58:11.622Z,4.95
2019-04-07T11:00:50.652Z,5.25
2019-04-07T11:03:29.482Z,7.35
2019-04-07T11:06:15.008Z,6.17
2019-04-07T11:08:55.461Z,8.40
2019-04-07T11:11:43.691Z,4.70
2019-04-07T11:14:14.218Z,5.25
2019-04-07T11:16:47.442Z,6.28
2019-04-07T11:19:28.407Z,6.37
2019-04-07T11:21:58.707Z,6.75
2019-04-07T11:24:35.179Z,4.78
2019-04-07T11:27:09.150Z,5.92
2019-04-07T11:29:39.738Z,5.58
2019-04-07T11:32:19.577Z,4.58
2019-04-07T11:34:55.977Z,4.95
2019-04-07T11:37:35.344Z,7.83
2019-04-07T11:40:13.155Z,4.65
2019-04-07T11:42:46.462Z,6.12
2019-04-07T11:45:31.497Z,4.47
2019-04-07T11:48:01.753Z,6.08
2019-04-07T11:50:38.141Z,5.70
2019-04-07T11:53:11.166Z,6.95
2019-04-07T11:55:44.271Z,4.28
2019-04-07T11:58:30.884Z,6.62
2019-04-07T12:00:55.443Z,5.90
2019-04-07T12:03:38.705Z,4.65
2019-04-07T12:06:14.367Z,3.60
2019-04-07T12:08:50.037Z,3.33
2019-04-07T12:11:26.232Z,5.10
2019-04-07T12:13:59.775Z,4.95
2019-04-07T12:16:39.096Z,3.47
2019-04-07T12:19:27.902Z,4.67
2019-04-07T12:21:58.433Z,3.12
2019-04-07T12:24:38.024Z,3.30
2019-04-07T12:27:10.838Z,4.35
2019-04-07T12:29:44.548Z,3.42
2019-04-07T12:32:30.310Z,11.18
2019-04-07T12:35:09.703Z,3.60
2019-04-07T12:37:43.745Z,4.22
2019-04-07T12:40:15.239Z,6.80
2019-04-07T12:43:04.562Z,3.42
2019-04-07T12:45:44.935Z,3.62
2019-04-07T12:48:15.677Z,3.70
2019-04-07T12:50:55.231Z,4.30
2019-04-07T12:53:32.118Z,5.22
2019-04-07T12:56:01.900Z,3.98
2019-04-07T12:58:32.367Z,3.10
2019-04-07T13:01:09.602Z,8.50
2019-04-07T13:03:40.821Z,2.83
2019-04-07T13:06:27.663Z,3.30
2019-04-07T13:09:00.762Z,2.62
2019-04-07T13:11:38.470Z,3.15
2019-04-07T13:14:23.769Z,3.58
2019-04-07T13:17:11.605Z,3.77
2019-04-07T13:19:58.798Z,2.80
2019-04-07T13:22:36.404Z,3.60
2019-04-07T13:25:24.249Z,2.55
2019-04-07T13:28:08.174Z,3.80
2019-04-07T13:30:45.596Z,5.65
2019-04-07T13:33:32.984Z,3.47
2019-04-07T13:36:06.173Z,2.60
2019-04-07T13:38:43.050Z,3.10
2019-04-07T13:41:38.748Z,2.42
2019-04-07T13:44:05.677Z,3.08
2019-04-07T13:46:37.654Z,3.50
2019-04-07T13:49:27.398Z,2.77
2019-04-07T13:51:59.524Z,2.30
2019-04-07T13:54:39.393Z,2.62
2019-04-07T13:57:26.289Z,3.60
2019-04-07T13:59:59.023Z,3.47
2019-04-07T14:02:45.616Z,1.92
2019-04-07T14:05:18.913Z,3.52
2019-04-07T14:07:55.225Z,6.17
2019-04-07T14:10:35.649Z,2.10
2019-04-07T14:13:07.724Z,3.53
2019-04-07T14:15:49.732Z,3.75
2019-04-07T14:18:20.228Z,2.98
2019-04-07T14:20:56.222Z,4.03
2019-04-07T14:23:29.775Z,2.50
2019-04-07T14:26:06.728Z,1.98
2019-04-07T14:28:40.187Z,3.00
2019-04-07T14:31:10.837Z,3.50
2019-04-07T14:33:57.825Z,3.40
2019-04-07T14:36:31.535Z,2.58
2019-04-07T14:39:13.991Z,2.75
2019-04-07T14:42:04.927Z,2.67
2019-04-07T14:44:35.859Z,2.92
2019-04-07T14:47:12.778Z,2.92
2019-04-07T14:49:51.550Z,2.75
2019-04-07T14:52:30.712Z,2.85
2019-04-07T14:55:18.399Z,3.67
2019-04-07T14:58:04.509Z,2.67
2019-04-07T15:00:40.720Z,3.72
2019-04-07T15:03:09.454Z,3.35
2019-04-07T15:05:39.669Z,6.05
2019-04-07T15:08:10.592Z,2.50
2019-04-07T15:10:47.319Z,3.30
2019-04-07T15:13:29.591Z,3.12
2019-04-07T15:15:58.479Z,6.47
2019-04-07T15:18:27.599Z,2.30
2019-04-07T15:20:57.217Z,2.95
2019-04-07T15:23:29.475Z,3.15
2019-04-07T15:25:56.828Z,2.27
2019-04-07T15:28:29.742Z,3.45
2019-04-07T15:30:56.828Z,2.87
2019-04-07T15:33:25.960Z,2.60
2019-04-07T15:35:54.923Z,2.00
2019-04-07T15:38:26.993Z,3.92
2019-04-07T15:40:54.045Z,2.60
2019-04-07T15:43:22.824Z,2.05
2019-04-07T15:45:52.180Z,2.37
2019-04-07T15:48:24.169Z,2.67
2019-04-07T15:50:51.783Z,2.20
2019-04-07T15:53:20.931Z,2.40
2019-04-07T15:55:58.492Z,2.52
2019-04-07T15:58:20.506Z,3.62
2019-04-07T16:00:49.301Z,2.40
2019-04-07T16:03:18.108Z,3.92
2019-04-07T16:05:46.841Z,3.33
2019-04-07T16:08:16.107Z,2.55
2019-04-07T16:10:45.349Z,3.20
2019-04-07T16:13:14.072Z,2.55
2019-04-07T16:15:44.904Z,3.60
2019-04-07T16:18:13.122Z,3.72
2019-04-07T16:20:42.080Z,2.20
2019-04-07T16:23:10.897Z,2.90
2019-04-07T16:25:40.844Z,2.35
2019-04-07T16:28:13.273Z,2.65
2019-04-07T16:30:40.792Z,4.72
2019-04-07T16:33:09.978Z,2.50
2019-04-07T16:35:39.726Z,2.30
2019-04-07T16:38:09.451Z,3.12
2019-04-07T16:40:40.499Z,2.52
2019-04-07T16:43:14.484Z,2.27
2019-04-07T16:45:38.891Z,2.58
2019-04-07T16:48:07.827Z,2.27
2019-04-07T16:50:38.110Z,2.72
2019-04-07T16:53:08.843Z,3.45
2019-04-07T16:55:40.156Z,4.13
2019-04-07T17:00:39.715Z,2.42
2019-04-07T17:03:09.713Z,3.55
2019-04-07T17:05:39.550Z,2.72
2019-04-07T17:08:08.907Z,2.30
2019-04-07T17:10:37.647Z,4.17
2019-04-07T17:13:16.998Z,3.67
2019-04-07T17:15:39.541Z,3.77
2019-04-07T17:18:08.928Z,5.15
2019-04-07T17:20:39.002Z,2.85
2019-04-07T17:23:07.866Z,3.47
2019-04-07T17:25:37.531Z,3.42
2019-04-07T17:28:06.519Z,2.47
2019-04-07T17:30:38.035Z,5.00
2019-04-07T17:33:06.562Z,5.58
2019-04-07T17:35:35.869Z,3.33
2019-04-07T17:38:06.905Z,2.62
2019-04-07T17:40:37.679Z,2.85
2019-04-07T17:43:08.246Z,2.42
2019-04-07T17:45:41.919Z,3.10
2019-04-07T17:48:17.116Z,5.25
2019-04-07T17:51:04.636Z,4.10
2019-04-07T17:53:41.325Z,3.20
2019-04-07T17:56:24.180Z,3.47
2019-04-07T17:58:57.580Z,3.12
2019-04-07T18:01:46.460Z,3.80
2019-04-07T18:04:23.031Z,3.65
2019-04-07T18:06:53.893Z,2.85
2019-04-07T18:09:37.108Z,4.90
2019-04-07T18:12:14.454Z,4.20
2019-04-07T18:14:45.814Z,3.62
2019-04-07T18:17:16.315Z,5.95
2019-04-07T18:19:52.647Z,3.20
2019-04-07T18:22:23.882Z,3.42
2019-04-07T18:25:14.101Z,3.83
2019-04-07T18:28:01.084Z,2.90
2019-04-07T18:30:33.346Z,4.08
2019-04-07T18:33:04.287Z,3.75
2019-04-07T18:35:52.884Z,3.55
2019-04-07T18:38:42.704Z,4.62
2019-04-07T18:41:17.327Z,6.78
2019-04-07T18:44:04.586Z,3.98
2019-04-07T18:46:31.714Z,4.17
2019-04-07T18:49:20.354Z,4.37
2019-04-07T18:51:53.741Z,5.30
2019-04-07T18:54:24.841Z,4.05
2019-04-07T18:57:01.317Z,6.55
2019-04-07T18:59:31.674Z,4.58
2019-04-07T19:02:18.238Z,5.90
2019-04-07T19:04:49.188Z,5.92
2019-04-07T19:10:03.716Z,3.62
2019-04-07T19:12:29.209Z,3.33
2019-04-07T19:15:10.543Z,4.35
2019-04-07T19:17:58.619Z,4.60
2019-04-07T19:20:27.860Z,3.72
2019-04-07T19:23:02.339Z,4.90
2019-04-07T19:25:48.572Z,4.17
2019-04-07T19:28:19.010Z,4.87
2019-04-07T19:31:06.663Z,3.22
2019-04-07T19:33:37.692Z,3.92
2019-04-07T19:36:24.475Z,6.20
2019-04-07T19:39:11.613Z,4.33
2019-04-07T19:42:04.665Z,4.20
2019-04-07T19:44:37.127Z,5.20
2019-04-07T19:47:10.743Z,6.05
2019-04-07T19:49:57.619Z,3.72
2019-04-07T19:52:46.398Z,4.12
2019-04-07T19:55:17.736Z,3.47
2019-04-07T19:58:05.582Z,4.17
2019-04-07T20:00:45.886Z,3.58
2019-04-07T20:03:39.179Z,3.72
2019-04-07T20:06:24.868Z,3.85
2019-04-07T20:09:11.573Z,3.75
2019-04-07T20:12:02.862Z,4.25
2019-04-07T20:14:49.249Z,5.97
2019-04-07T20:17:17.362Z,4.15
2019-04-07T20:19:59.924Z,3.50
2019-04-07T20:22:49.325Z,4.85
2019-04-07T20:25:20.376Z,6.35
2019-04-07T20:27:51.232Z,3.85
2019-04-07T20:30:33.755Z,4.35
2019-04-07T20:33:18.838Z,4.92
2019-04-07T20:35:52.231Z,3.22
2019-04-07T20:38:40.163Z,4.80
2019-04-07T20:41:17.038Z,3.52
2019-04-07T20:44:03.889Z,6.97
2019-04-07T20:46:38.026Z,5.60
2019-04-07T20:49:23.133Z,4.97
2019-04-07T20:51:56.425Z,5.67
2019-04-07T20:54:26.875Z,4.75
2019-04-07T20:57:02.561Z,5.00
2019-04-07T20:59:33.284Z,4.12
2019-04-07T21:02:09.832Z,5.75
2019-04-07T21:04:39.621Z,7.80
2019-04-07T21:07:29.815Z,5.10
2019-04-07T21:10:09.483Z,5.25
2019-04-07T21:12:38.940Z,4.42
2019-04-07T21:15:29.609Z,4.70
2019-04-07T21:18:05.618Z,5.92
2019-04-07T21:20:52.963Z,5.00
2019-04-07T21:23:33.136Z,4.15
2019-04-07T21:26:20.945Z,4.30
2019-04-07T21:28:51.289Z,5.95
2019-04-07T21:31:37.982Z,4.58
2019-04-07T21:34:27.056Z,6.22
2019-04-07T21:37:00.965Z,5.67
2019-04-07T21:39:34.425Z,5.20
2019-04-07T21:42:22.225Z,4.65
2019-04-07T21:45:05.427Z,7.45
2019-04-07T21:47:39.827Z,5.00
2019-04-07T21:50:21.980Z,5.83
2019-04-07T21:53:08.448Z,5.00
2019-04-07T21:55:43.062Z,4.60
2019-04-07T21:58:23.212Z,5.12
2019-04-07T22:00:51.713Z,6.17
2019-04-07T22:53:22.539Z,5.72
2019-04-07T22:55:49.437Z,5.65
2019-04-07T22:58:18.739Z,6.83
2019-04-07T23:00:47.630Z,7.22
2019-04-07T23:03:16.412Z,4.70
2019-04-07T23:05:45.848Z,6.03
2019-04-07T23:08:14.819Z,5.87
2019-04-07T23:10:44.262Z,5.35
2019-04-07T23:13:13.282Z,7.50
2019-04-07T23:15:45.565Z,6.55
2019-04-07T23:18:12.532Z,5.75
2019-04-07T23:20:41.719Z,6.42
2019-04-07T23:23:10.998Z,5.55
2019-04-07T23:25:39.922Z,5.80
2019-04-07T23:28:08.712Z,5.80
2019-04-07T23:30:37.502Z,5.10
2019-04-07T23:33:06.324Z,6.75
2019-04-07T23:35:35.178Z,5.83
2019-04-07T23:38:03.870Z,5.40
2019-04-07T23:40:32.656Z,4.87
2019-04-07T23:43:01.340Z,6.80
2019-04-07T23:45:30.131Z,5.20
2019-04-07T23:47:59.766Z,7.35
2019-04-07T23:50:29.410Z,6.25
2019-04-07T23:53:01.413Z,7.50
2019-04-07T23:55:30.201Z,6.65
2019-04-07T23:57:58.888Z,6.08
